CheckWX is a tool to help pilots better visualize weather data.  It is not intended as a substitute for an official pre-flight weather briefing.

07:39:48 UTC

KFOD METAR
Fort Dodge Regional Airport
Fort Dodge, Iowa, USA
Current

44 mins ago

KFOD 230656Z AUTO 22005KT 10SM CLR 01/M01 A2991 RMK AO2 SLP165 T00111006 FZRANO
Observed
Feb-23 @ 06:56 UTC
Wind
  • 220° at 5 KTS
Visibility
10 SM
Flight Rules
VFR
Cloud Levels
  • Clear skies
Temperature
C / 34°F
Dewpoint
-1°C / 30°F
Humidity
87%
Altimeter
29.91" Hg
Pressure
1012.92 hPa
Previous

2 hours ago

KFOD 230556Z AUTO 23007KT 10SM CLR 01/M01 A2992 RMK AO2 SLP169 T00111006 10067 20011 50003 FZRANO
Observed
Feb-23 @ 05:56 UTC
Wind
  • 230° at 7 KTS
Visibility
10 SM
Flight Rules
VFR
Cloud Levels
  • Clear skies
Temperature
C / 34°F
Dewpoint
-1°C / 30°F
Humidity
87%
Altimeter
29.92" Hg
Pressure
1013.22 hPa
Previous

3 hours ago

KFOD 230456Z AUTO 23005KT 10SM CLR 02/M01 A2992 RMK AO2 SLP171 T00171006 400891022 FZRANO
Observed
Feb-23 @ 04:56 UTC
Wind
  • 230° at 5 KTS
Visibility
10 SM
Flight Rules
VFR
Cloud Levels
  • Clear skies
Temperature
C / 36°F
Dewpoint
-1°C / 30°F
Humidity
81%
Altimeter
29.92" Hg
Pressure
1013.22 hPa